Center Junction, IA

10:52 AM CST on January 25, 2015 (GMT -0600)
Monticello Regional | Change Station
CLOSE
Current Station
Airport
Location: Monticello,
Elevation: 850 ft
Nearby Weather Stations
Active Advisory: Special Statement

Elev 850 ft 42.22 °N, 91.16 °W | Updated 22 minutes ago

Snow
Snow
28 °F
Feels Like 18 °F
N
14
Wind Variable Wind from NE
Gusts 25 mph

Today
High -- | Low -- °F
--% Chance of Precip.
Yesterday
High -- | Low -- °F
Precip. -- in
7:23 AM 5:09 PM
Waxing Crescent, 34% visible
Pressure 29.85 in
Visibility 9.0 miles
Clouds Mostly Cloudy 1500 ft
Mostly Cloudy 6500 ft
Windchill 18 °F
Dew Point 25 °F
Humidity 86%
Rainfall 0.00 in
Snow Depth Not available.
UV 1 out of 12
Pollen .10 out of 12
Air Quality Not available.
Flu Activity Not available.
METAR KMXO 251630Z AUTO 04012G22KT 9SM -SN BKN015 BKN065 M02/M04 A2985 RMK AO2

More Conditions Fewer Conditions

Pressure 29.85 in
Visibility 9.0 miles
Clouds Mostly Cloudy 1500 ft
Mostly Cloudy 6500 ft
Windchill 18 °F
Dew Point 25 °F
Humidity 86%
Rainfall 0.00 in
Snow Depth Not available.
UV 1 out of 12
Pollen .10 out of 12
Air Quality Not available.
Flu Activity Not available.
METAR KMXO 251630Z AUTO 04012G22KT 9SM -SN BKN015 BKN065 M02/M04 A2985 RMK AO2

More Conditions Fewer Conditions

10-Day Weather Forecast

Almanac

Astronomy

Jan. 25, 2015 Rise Set
Actual Time
Civil Twilight
Nautical Twilight
Astronomical Twilight
Moon
Length of Visible Light
Length of Day
Tomorrow will be .
, % of the Moon is Illuminated

Today's Extremes

State Highs State Lows

Community

WunderPhotos

Upload Photos

1,789,963 photos uploaded!

WunderBlogs® & News

Nearby

Air Quality

  Air Quality AQ Index Pollutant
Not available.

Snow Depth

Station Depth Elevation

Earthquake Activity

City Distance Mag. Time & Date
Minimum magnitude displayed is 2.5.

Coastal Water Temperatures

Place Temperature

Nearby Weather Stations